sensor_id;sensor_type;location;lat;lon;timestamp;temperature;humidity
50013;DHT22;35901;48.694;9.476;2023-03-16T00:01:39;-2.90;99.90
50013;DHT22;35901;48.694;9.476;2023-03-16T00:04:04;-3.10;99.90
50013;DHT22;35901;48.694;9.476;2023-03-16T00:06:30;-3.20;99.90
50013;DHT22;35901;48.694;9.476;2023-03-16T00:08:55;-3.20;99.90
50013;DHT22;35901;48.694;9.476;2023-03-16T00:11:24;-3.20;99.90
50013;DHT22;35901;48.694;9.476;2023-03-16T00:13:50;-3.20;99.90
50013;DHT22;35901;48.694;9.476;2023-03-16T00:16:16;-3.20;99.90
50013;DHT22;35901;48.694;9.476;2023-03-16T00:18:42;-3.20;99.90
50013;DHT22;35901;48.694;9.476;2023-03-16T00:21:07;-3.20;99.90
50013;DHT22;35901;48.694;9.476;2023-03-16T00:23:34;-3.20;99.90
50013;DHT22;35901;48.694;9.476;2023-03-16T00:26:03;-3.20;99.90
50013;DHT22;35901;48.694;9.476;2023-03-16T00:28:31;-3.00;99.90
50013;DHT22;35901;48.694;9.476;2023-03-16T00:31:07;-3.00;99.90
50013;DHT22;35901;48.694;9.476;2023-03-16T00:33:37;-3.00;99.90
50013;DHT22;35901;48.694;9.476;2023-03-16T00:36:05;-2.90;99.90
50013;DHT22;35901;48.694;9.476;2023-03-16T00:38:35;-2.90;99.90
50013;DHT22;35901;48.694;9.476;2023-03-16T00:41:06;-2.90;99.90
50013;DHT22;35901;48.694;9.476;2023-03-16T00:43:34;-2.90;99.90
50013;DHT22;35901;48.694;9.476;2023-03-16T00:46:10;-2.80;99.90
50013;DHT22;35901;48.694;9.476;2023-03-16T00:48:37;-2.80;99.90
50013;DHT22;35901;48.694;9.476;2023-03-16T00:51:05;-2.80;99.90
50013;DHT22;35901;48.694;9.476;2023-03-16T00:53:35;-2.70;99.90
50013;DHT22;35901;48.694;9.476;2023-03-16T00:56:02;-2.70;99.90
50013;DHT22;35901;48.694;9.476;2023-03-16T00:58:33;-2.80;99.90
50013;DHT22;35901;48.694;9.476;2023-03-16T01:01:09;-2.70;99.90
50013;DHT22;35901;48.694;9.476;2023-03-16T01:03:35;-2.70;99.90
50013;DHT22;35901;48.694;9.476;2023-03-16T01:06:08;-2.80;99.90
50013;DHT22;35901;48.694;9.476;2023-03-16T01:08:35;-2.80;99.90
50013;DHT22;35901;48.694;9.476;2023-03-16T01:11:06;-2.80;99.90
50013;DHT22;35901;48.694;9.476;2023-03-16T01:13:32;-2.90;99.90
50013;DHT22;35901;48.694;9.476;2023-03-16T01:15:59;-2.90;99.90
50013;DHT22;35901;48.694;9.476;2023-03-16T01:18:26;-3.00;99.90
50013;DHT22;35901;48.694;9.476;2023-03-16T01:20:52;-3.10;99.90
50013;DHT22;35901;48.694;9.476;2023-03-16T01:23:18;-3.10;99.90
50013;DHT22;35901;48.694;9.476;2023-03-16T01:25:44;-3.10;99.90
50013;DHT22;35901;48.694;9.476;2023-03-16T01:28:21;-3.00;99.90
50013;DHT22;35901;48.694;9.476;2023-03-16T01:30:53;-3.10;99.90
50013;DHT22;35901;48.694;9.476;2023-03-16T01:33:20;-3.10;99.90
50013;DHT22;35901;48.694;9.476;2023-03-16T01:35:57;-2.90;99.90
50013;DHT22;35901;48.694;9.476;2023-03-16T01:38:27;-2.60;99.90
50013;DHT22;35901;48.694;9.476;2023-03-16T01:40:54;-2.60;99.90
50013;DHT22;35901;48.694;9.476;2023-03-16T01:43:25;-2.70;99.90
50013;DHT22;35901;48.694;9.476;2023-03-16T01:46:09;-2.80;99.90
50013;DHT22;35901;48.694;9.476;2023-03-16T01:48:46;-2.90;99.90
50013;DHT22;35901;48.694;9.476;2023-03-16T01:54:05;-3.10;99.90
50013;DHT22;35901;48.694;9.476;2023-03-16T01:56:43;-3.10;99.90
50013;DHT22;35901;48.694;9.476;2023-03-16T01:59:13;-3.10;99.90
50013;DHT22;35901;48.694;9.476;2023-03-16T02:01:41;-3.20;99.90
50013;DHT22;35901;48.694;9.476;2023-03-16T02:04:36;-3.20;99.90
50013;DHT22;35901;48.694;9.476;2023-03-16T02:07:06;-3.20;99.90
50013;DHT22;35901;48.694;9.476;2023-03-16T02:09:36;-3.30;99.90
50013;DHT22;35901;48.694;9.476;2023-03-16T02:12:04;-3.30;99.90
50013;DHT22;35901;48.694;9.476;2023-03-16T02:14:33;-3.40;99.90
50013;DHT22;35901;48.694;9.476;2023-03-16T02:17:00;-3.40;99.90
50013;DHT22;35901;48.694;9.476;2023-03-16T02:19:56;-3.50;99.90
50013;DHT22;35901;48.694;9.476;2023-03-16T02:22:17;-3.40;99.90
50013;DHT22;35901;48.694;9.476;2023-03-16T02:24:44;-3.30;99.90
50013;DHT22;35901;48.694;9.476;2023-03-16T02:27:25;-3.20;99.90
50013;DHT22;35901;48.694;9.476;2023-03-16T02:30:12;-3.10;99.90
50013;DHT22;35901;48.694;9.476;2023-03-16T02:32:54;-3.00;99.90
50013;DHT22;35901;48.694;9.476;2023-03-16T02:35:21;-3.00;99.90
50013;DHT22;35901;48.694;9.476;2023-03-16T02:37:48;-3.00;99.90
50013;DHT22;35901;48.694;9.476;2023-03-16T02:40:27;-3.20;99.90
50013;DHT22;35901;48.694;9.476;2023-03-16T02:45:31;-3.10;99.90
50013;DHT22;35901;48.694;9.476;2023-03-16T02:48:02;-3.10;99.90
50013;DHT22;35901;48.694;9.476;2023-03-16T02:50:30;-3.00;99.90
50013;DHT22;35901;48.694;9.476;2023-03-16T02:52:56;-3.10;99.90
50013;DHT22;35901;48.694;9.476;2023-03-16T02:55:22;-3.20;99.90
50013;DHT22;35901;48.694;9.476;2023-03-16T02:57:47;-3.30;99.90
50013;DHT22;35901;48.694;9.476;2023-03-16T03:00:15;-3.40;99.90
50013;DHT22;35901;48.694;9.476;2023-03-16T03:02:44;-3.50;99.90
50013;DHT22;35901;48.694;9.476;2023-03-16T03:05:11;-3.50;99.90
50013;DHT22;35901;48.694;9.476;2023-03-16T03:07:37;-3.40;99.90
50013;DHT22;35901;48.694;9.476;2023-03-16T03:10:06;-3.40;99.90
50013;DHT22;35901;48.694;9.476;2023-03-16T03:12:33;-3.40;99.90
50013;DHT22;35901;48.694;9.476;2023-03-16T03:14:59;-3.40;99.90
50013;DHT22;35901;48.694;9.476;2023-03-16T03:17:27;-3.50;99.90
50013;DHT22;35901;48.694;9.476;2023-03-16T03:19:57;-3.60;99.90
50013;DHT22;35901;48.694;9.476;2023-03-16T03:22:23;-3.60;99.90
50013;DHT22;35901;48.694;9.476;2023-03-16T03:24:51;-3.70;99.90
50013;DHT22;35901;48.694;9.476;2023-03-16T03:27:18;-3.80;99.90
50013;DHT22;35901;48.694;9.476;2023-03-16T03:29:44;-3.90;99.90
50013;DHT22;35901;48.694;9.476;2023-03-16T03:32:10;-3.90;99.90
50013;DHT22;35901;48.694;9.476;2023-03-16T03:34:36;-3.90;99.90
50013;DHT22;35901;48.694;9.476;2023-03-16T03:37:04;-3.70;99.90
50013;DHT22;35901;48.694;9.476;2023-03-16T03:39:30;-3.60;99.90
50013;DHT22;35901;48.694;9.476;2023-03-16T03:41:55;-3.60;99.90
50013;DHT22;35901;48.694;9.476;2023-03-16T03:44:23;-3.50;99.90
50013;DHT22;35901;48.694;9.476;2023-03-16T03:46:49;-3.50;99.90
50013;DHT22;35901;48.694;9.476;2023-03-16T03:49:16;-3.50;99.90
50013;DHT22;35901;48.694;9.476;2023-03-16T03:51:43;-3.60;99.90
50013;DHT22;35901;48.694;9.476;2023-03-16T03:54:13;-3.70;99.90
50013;DHT22;35901;48.694;9.476;2023-03-16T03:56:41;-3.70;99.90
50013;DHT22;35901;48.694;9.476;2023-03-16T03:59:11;-3.80;99.90
50013;DHT22;35901;48.694;9.476;2023-03-16T04:02:09;-3.80;99.90
50013;DHT22;35901;48.694;9.476;2023-03-16T04:04:44;-3.70;99.90
50013;DHT22;35901;48.694;9.476;2023-03-16T04:07:12;-3.60;99.90
50013;DHT22;35901;48.694;9.476;2023-03-16T04:09:38;-3.60;99.90
50013;DHT22;35901;48.694;9.476;2023-03-16T04:12:07;-3.50;99.90
50013;DHT22;35901;48.694;9.476;2023-03-16T04:14:33;-3.50;99.90
50013;DHT22;35901;48.694;9.476;2023-03-16T04:17:01;-3.40;99.90
50013;DHT22;35901;48.694;9.476;2023-03-16T04:19:29;-3.50;99.90
50013;DHT22;35901;48.694;9.476;2023-03-16T04:21:55;-3.50;99.90
50013;DHT22;35901;48.694;9.476;2023-03-16T04:24:21;-3.40;99.90
50013;DHT22;35901;48.694;9.476;2023-03-16T04:26:47;-3.40;99.90
50013;DHT22;35901;48.694;9.476;2023-03-16T04:29:14;-3.40;99.90
50013;DHT22;35901;48.694;9.476;2023-03-16T04:31:43;-3.40;99.90
50013;DHT22;35901;48.694;9.476;2023-03-16T04:34:09;-3.40;99.90
50013;DHT22;35901;48.694;9.476;2023-03-16T04:36:36;-3.50;99.90
50013;DHT22;35901;48.694;9.476;2023-03-16T04:39:04;-3.50;99.90
50013;DHT22;35901;48.694;9.476;2023-03-16T04:41:30;-3.50;99.90
50013;DHT22;35901;48.694;9.476;2023-03-16T04:44:07;-3.60;99.90
50013;DHT22;35901;48.694;9.476;2023-03-16T04:46:34;-3.70;99.90
50013;DHT22;35901;48.694;9.476;2023-03-16T04:49:06;-3.50;99.90
50013;DHT22;35901;48.694;9.476;2023-03-16T04:51:36;-3.40;99.90
50013;DHT22;35901;48.694;9.476;2023-03-16T04:54:11;-3.30;99.90
50013;DHT22;35901;48.694;9.476;2023-03-16T04:56:41;-3.30;99.90
50013;DHT22;35901;48.694;9.476;2023-03-16T04:59:13;-3.20;99.90
50013;DHT22;35901;48.694;9.476;2023-03-16T05:01:47;-3.20;99.90
50013;DHT22;35901;48.694;9.476;2023-03-16T05:04:15;-3.30;99.90
50013;DHT22;35901;48.694;9.476;2023-03-16T05:06:40;-3.40;99.90
50013;DHT22;35901;48.694;9.476;2023-03-16T05:09:07;-3.50;99.90
50013;DHT22;35901;48.694;9.476;2023-03-16T05:11:35;-3.60;99.90
50013;DHT22;35901;48.694;9.476;2023-03-16T05:14:04;-3.70;99.90
50013;DHT22;35901;48.694;9.476;2023-03-16T05:16:33;-3.80;99.90
50013;DHT22;35901;48.694;9.476;2023-03-16T05:18:59;-3.80;99.90
50013;DHT22;35901;48.694;9.476;2023-03-16T05:21:28;-3.80;99.90
50013;DHT22;35901;48.694;9.476;2023-03-16T05:24:00;-3.70;99.90
50013;DHT22;35901;48.694;9.476;2023-03-16T05:26:26;-3.60;99.90
50013;DHT22;35901;48.694;9.476;2023-03-16T05:28:52;-3.60;99.90
50013;DHT22;35901;48.694;9.476;2023-03-16T05:31:23;-3.60;99.90
50013;DHT22;35901;48.694;9.476;2023-03-16T05:33:53;-3.60;99.90
50013;DHT22;35901;48.694;9.476;2023-03-16T05:36:19;-3.60;99.90
50013;DHT22;35901;48.694;9.476;2023-03-16T05:38:49;-3.60;99.90
50013;DHT22;35901;48.694;9.476;2023-03-16T05:41:27;-3.60;99.90
50013;DHT22;35901;48.694;9.476;2023-03-16T05:44:03;-3.50;99.90
50013;DHT22;35901;48.694;9.476;2023-03-16T05:46:39;-3.40;99.90
50013;DHT22;35901;48.694;9.476;2023-03-16T05:49:06;-3.20;99.90
50013;DHT22;35901;48.694;9.476;2023-03-16T05:51:31;-3.00;99.90
50013;DHT22;35901;48.694;9.476;2023-03-16T05:53:59;-2.70;99.90
50013;DHT22;35901;48.694;9.476;2023-03-16T05:56:31;-2.60;99.90
50013;DHT22;35901;48.694;9.476;2023-03-16T05:58:58;-2.50;99.90
50013;DHT22;35901;48.694;9.476;2023-03-16T06:01:25;-2.60;99.90
50013;DHT22;35901;48.694;9.476;2023-03-16T06:03:51;-2.50;99.90
50013;DHT22;35901;48.694;9.476;2023-03-16T06:06:21;-2.40;99.90
50013;DHT22;35901;48.694;9.476;2023-03-16T06:08:56;-2.30;99.90
50013;DHT22;35901;48.694;9.476;2023-03-16T06:11:24;-2.20;99.90
50013;DHT22;35901;48.694;9.476;2023-03-16T06:13:50;-2.00;99.90
50013;DHT22;35901;48.694;9.476;2023-03-16T06:16:16;-1.70;99.90
50013;DHT22;35901;48.694;9.476;2023-03-16T06:18:42;-1.30;99.90
50013;DHT22;35901;48.694;9.476;2023-03-16T06:21:08;-0.80;99.90
50013;DHT22;35901;48.694;9.476;2023-03-16T06:23:34;-0.30;99.90
50013;DHT22;35901;48.694;9.476;2023-03-16T06:26:02;0.10;99.90
50013;DHT22;35901;48.694;9.476;2023-03-16T06:28:29;0.10;99.90
50013;DHT22;35901;48.694;9.476;2023-03-16T06:30:56;0.10;99.90
50013;DHT22;35901;48.694;9.476;2023-03-16T06:33:25;0.20;99.90
50013;DHT22;35901;48.694;9.476;2023-03-16T06:35:52;0.30;99.90
50013;DHT22;35901;48.694;9.476;2023-03-16T06:38:27;0.60;99.90
50013;DHT22;35901;48.694;9.476;2023-03-16T06:41:00;0.90;99.90
50013;DHT22;35901;48.694;9.476;2023-03-16T06:43:26;1.30;99.90
50013;DHT22;35901;48.694;9.476;2023-03-16T06:45:53;1.40;99.90
50013;DHT22;35901;48.694;9.476;2023-03-16T06:48:19;1.60;99.90
50013;DHT22;35901;48.694;9.476;2023-03-16T06:50:46;1.90;99.90
50013;DHT22;35901;48.694;9.476;2023-03-16T06:53:13;2.20;99.90
50013;DHT22;35901;48.694;9.476;2023-03-16T06:55:39;2.60;99.90
50013;DHT22;35901;48.694;9.476;2023-03-16T06:58:06;3.00;99.90
50013;DHT22;35901;48.694;9.476;2023-03-16T07:00:32;3.40;99.90
50013;DHT22;35901;48.694;9.476;2023-03-16T07:02:59;3.40;99.90
50013;DHT22;35901;48.694;9.476;2023-03-16T07:05:25;3.50;99.90
50013;DHT22;35901;48.694;9.476;2023-03-16T07:07:51;3.50;99.90
50013;DHT22;35901;48.694;9.476;2023-03-16T07:10:17;3.60;99.90
50013;DHT22;35901;48.694;9.476;2023-03-16T07:12:43;3.80;99.90
50013;DHT22;35901;48.694;9.476;2023-03-16T07:15:10;4.20;99.90
50013;DHT22;35901;48.694;9.476;2023-03-16T07:17:37;4.60;99.90
50013;DHT22;35901;48.694;9.476;2023-03-16T07:20:06;4.90;99.90
50013;DHT22;35901;48.694;9.476;2023-03-16T07:22:35;5.30;99.90
50013;DHT22;35901;48.694;9.476;2023-03-16T07:25:01;5.30;99.90
50013;DHT22;35901;48.694;9.476;2023-03-16T07:27:27;5.50;99.90
50013;DHT22;35901;48.694;9.476;2023-03-16T07:29:55;5.50;99.90
50013;DHT22;35901;48.694;9.476;2023-03-16T07:32:21;5.70;99.90
50013;DHT22;35901;48.694;9.476;2023-03-16T07:34:48;5.30;99.90
50013;DHT22;35901;48.694;9.476;2023-03-16T07:37:14;5.50;99.90
50013;DHT22;35901;48.694;9.476;2023-03-16T07:39:42;5.70;99.90
50013;DHT22;35901;48.694;9.476;2023-03-16T07:42:14;5.50;99.90
50013;DHT22;35901;48.694;9.476;2023-03-16T07:44:56;5.60;99.90
50013;DHT22;35901;48.694;9.476;2023-03-16T07:47:22;5.70;99.90
50013;DHT22;35901;48.694;9.476;2023-03-16T07:49:50;6.10;99.90
50013;DHT22;35901;48.694;9.476;2023-03-16T07:52:16;6.20;99.90
50013;DHT22;35901;48.694;9.476;2023-03-16T07:54:43;6.90;99.90
50013;DHT22;35901;48.694;9.476;2023-03-16T07:57:10;7.40;99.90
50013;DHT22;35901;48.694;9.476;2023-03-16T07:59:40;7.30;99.90
50013;DHT22;35901;48.694;9.476;2023-03-16T08:02:12;7.20;99.90
50013;DHT22;35901;48.694;9.476;2023-03-16T08:04:39;7.30;99.90
50013;DHT22;35901;48.694;9.476;2023-03-16T08:07:11;7.30;99.90
50013;DHT22;35901;48.694;9.476;2023-03-16T08:10:12;7.40;99.90
50013;DHT22;35901;48.694;9.476;2023-03-16T08:12:44;7.60;99.90
50013;DHT22;35901;48.694;9.476;2023-03-16T08:15:10;7.90;99.90
50013;DHT22;35901;48.694;9.476;2023-03-16T08:17:37;7.90;99.90
50013;DHT22;35901;48.694;9.476;2023-03-16T08:20:09;8.10;99.90
50013;DHT22;35901;48.694;9.476;2023-03-16T08:22:37;7.70;99.90
50013;DHT22;35901;48.694;9.476;2023-03-16T08:25:05;7.60;99.90
50013;DHT22;35901;48.694;9.476;2023-03-16T08:27:31;7.80;99.90
50013;DHT22;35901;48.694;9.476;2023-03-16T08:30:04;7.80;99.90
50013;DHT22;35901;48.694;9.476;2023-03-16T08:32:32;8.20;99.90
50013;DHT22;35901;48.694;9.476;2023-03-16T08:34:58;8.30;99.90
50013;DHT22;35901;48.694;9.476;2023-03-16T08:37:25;8.40;99.90
50013;DHT22;35901;48.694;9.476;2023-03-16T08:39:53;8.30;99.90
50013;DHT22;35901;48.694;9.476;2023-03-16T08:42:19;8.40;99.90
50013;DHT22;35901;48.694;9.476;2023-03-16T08:44:50;8.60;99.90
50013;DHT22;35901;48.694;9.476;2023-03-16T08:47:17;8.60;99.90
50013;DHT22;35901;48.694;9.476;2023-03-16T08:49:44;8.80;99.90
50013;DHT22;35901;48.694;9.476;2023-03-16T08:52:12;8.80;99.90
50013;DHT22;35901;48.694;9.476;2023-03-16T08:54:38;8.90;99.90
50013;DHT22;35901;48.694;9.476;2023-03-16T08:57:04;9.10;99.90
50013;DHT22;35901;48.694;9.476;2023-03-16T08:59:30;9.00;99.90
50013;DHT22;35901;48.694;9.476;2023-03-16T09:01:56;9.00;99.90
50013;DHT22;35901;48.694;9.476;2023-03-16T09:04:22;9.10;99.90
50013;DHT22;35901;48.694;9.476;2023-03-16T09:06:48;9.30;99.90
50013;DHT22;35901;48.694;9.476;2023-03-16T09:09:16;9.20;99.90
50013;DHT22;35901;48.694;9.476;2023-03-16T09:11:42;9.10;99.90
50013;DHT22;35901;48.694;9.476;2023-03-16T09:14:08;9.10;99.90
50013;DHT22;35901;48.694;9.476;2023-03-16T09:16:36;9.20;99.90
50013;DHT22;35901;48.694;9.476;2023-03-16T09:19:03;9.40;99.90
50013;DHT22;35901;48.694;9.476;2023-03-16T09:21:29;9.50;99.90
50013;DHT22;35901;48.694;9.476;2023-03-16T09:23:55;9.70;99.50
50013;DHT22;35901;48.694;9.476;2023-03-16T09:26:21;9.60;99.90
50013;DHT22;35901;48.694;9.476;2023-03-16T09:28:47;9.60;99.90
50013;DHT22;35901;48.694;9.476;2023-03-16T09:31:16;9.70;99.90
50013;DHT22;35901;48.694;9.476;2023-03-16T09:33:43;9.80;99.90
50013;DHT22;35901;48.694;9.476;2023-03-16T09:36:10;9.90;99.90
50013;DHT22;35901;48.694;9.476;2023-03-16T09:38:36;9.90;99.90
50013;DHT22;35901;48.694;9.476;2023-03-16T09:41:08;10.00;99.20
50013;DHT22;35901;48.694;9.476;2023-03-16T09:46:26;10.20;98.90
50013;DHT22;35901;48.694;9.476;2023-03-16T09:48:53;10.10;99.30
50013;DHT22;35901;48.694;9.476;2023-03-16T09:53:58;10.50;98.20
50013;DHT22;35901;48.694;9.476;2023-03-16T09:59:56;10.00;98.30
50013;DHT22;35901;48.694;9.476;2023-03-16T10:03:04;9.70;98.80
50013;DHT22;35901;48.694;9.476;2023-03-16T10:05:36;10.70;99.00
50013;DHT22;35901;48.694;9.476;2023-03-16T10:08:26;10.70;95.70
50013;DHT22;35901;48.694;9.476;2023-03-16T10:16:39;10.60;97.10
50013;DHT22;35901;48.694;9.476;2023-03-16T10:21:52;10.70;96.70
50013;DHT22;35901;48.694;9.476;2023-03-16T10:24:43;10.90;96.90
50013;DHT22;35901;48.694;9.476;2023-03-16T10:27:21;11.10;97.70
50013;DHT22;35901;48.694;9.476;2023-03-16T10:29:50;11.20;95.70
50013;DHT22;35901;48.694;9.476;2023-03-16T10:32:17;11.00;96.10
50013;DHT22;35901;48.694;9.476;2023-03-16T10:35:01;11.10;98.20
50013;DHT22;35901;48.694;9.476;2023-03-16T10:37:29;11.00;95.30
50013;DHT22;35901;48.694;9.476;2023-03-16T10:39:55;10.90;95.50
50013;DHT22;35901;48.694;9.476;2023-03-16T10:42:23;10.80;95.10
50013;DHT22;35901;48.694;9.476;2023-03-16T10:44:56;10.60;96.10
50013;DHT22;35901;48.694;9.476;2023-03-16T10:47:26;11.10;94.70
50013;DHT22;35901;48.694;9.476;2023-03-16T10:49:52;11.20;94.10
50013;DHT22;35901;48.694;9.476;2023-03-16T10:52:32;11.00;96.50
50013;DHT22;35901;48.694;9.476;2023-03-16T10:55:29;11.00;94.60
50013;DHT22;35901;48.694;9.476;2023-03-16T10:57:57;10.80;94.90
50013;DHT22;35901;48.694;9.476;2023-03-16T11:00:29;11.10;95.30
50013;DHT22;35901;48.694;9.476;2023-03-16T11:02:57;11.40;97.20
50013;DHT22;35901;48.694;9.476;2023-03-16T11:05:29;11.80;94.00
50013;DHT22;35901;48.694;9.476;2023-03-16T11:10:45;11.90;91.90
50013;DHT22;35901;48.694;9.476;2023-03-16T11:13:16;11.70;94.10
50013;DHT22;35901;48.694;9.476;2023-03-16T11:15:54;11.90;94.10
50013;DHT22;35901;48.694;9.476;2023-03-16T11:18:25;11.30;91.20
50013;DHT22;35901;48.694;9.476;2023-03-16T11:20:52;11.80;92.10
50013;DHT22;35901;48.694;9.476;2023-03-16T11:23:28;12.00;93.00
50013;DHT22;35901;48.694;9.476;2023-03-16T11:25:55;12.10;93.00
50013;DHT22;35901;48.694;9.476;2023-03-16T11:28:35;12.10;93.00
50013;DHT22;35901;48.694;9.476;2023-03-16T11:31:21;12.00;93.10
50013;DHT22;35901;48.694;9.476;2023-03-16T11:33:52;12.10;94.00
50013;DHT22;35901;48.694;9.476;2023-03-16T11:36:32;12.00;94.40
50013;DHT22;35901;48.694;9.476;2023-03-16T11:39:09;12.20;93.30
50013;DHT22;35901;48.694;9.476;2023-03-16T11:42:01;12.10;93.70
50013;DHT22;35901;48.694;9.476;2023-03-16T11:47:32;12.20;91.80
50013;DHT22;35901;48.694;9.476;2023-03-16T11:50:46;11.90;92.90
50013;DHT22;35901;48.694;9.476;2023-03-16T11:56:25;12.00;92.40
50013;DHT22;35901;48.694;9.476;2023-03-16T12:07:22;12.20;89.40
50013;DHT22;35901;48.694;9.476;2023-03-16T12:10:00;12.20;91.20
50013;DHT22;35901;48.694;9.476;2023-03-16T12:15:22;12.20;91.30
50013;DHT22;35901;48.694;9.476;2023-03-16T12:17:53;12.10;91.80
50013;DHT22;35901;48.694;9.476;2023-03-16T12:20:23;12.10;88.80
50013;DHT22;35901;48.694;9.476;2023-03-16T12:22:59;11.50;87.50
50013;DHT22;35901;48.694;9.476;2023-03-16T12:25:38;11.50;84.00
50013;DHT22;35901;48.694;9.476;2023-03-16T12:28:16;12.70;87.20
50013;DHT22;35901;48.694;9.476;2023-03-16T12:33:46;12.50;84.80
50013;DHT22;35901;48.694;9.476;2023-03-16T12:41:40;12.40;86.10
50013;DHT22;35901;48.694;9.476;2023-03-16T12:44:25;12.80;90.20
50013;DHT22;35901;48.694;9.476;2023-03-16T12:47:45;12.80;89.00
50013;DHT22;35901;48.694;9.476;2023-03-16T12:49:51;12.80;85.80
50013;DHT22;35901;48.694;9.476;2023-03-16T12:52:17;12.60;87.00
50013;DHT22;35901;48.694;9.476;2023-03-16T12:55:07;12.30;84.80
50013;DHT22;35901;48.694;9.476;2023-03-16T12:57:38;12.80;83.10
50013;DHT22;35901;48.694;9.476;2023-03-16T13:00:05;12.90;85.40
50013;DHT22;35901;48.694;9.476;2023-03-16T13:02:35;13.30;82.60
50013;DHT22;35901;48.694;9.476;2023-03-16T13:07:34;12.90;83.60
50013;DHT22;35901;48.694;9.476;2023-03-16T13:10:08;12.70;83.40
50013;DHT22;35901;48.694;9.476;2023-03-16T13:12:36;12.10;84.70
50013;DHT22;35901;48.694;9.476;2023-03-16T13:17:46;12.50;85.40
50013;DHT22;35901;48.694;9.476;2023-03-16T13:22:46;12.20;81.30
50013;DHT22;35901;48.694;9.476;2023-03-16T13:27:57;12.40;89.60
50013;DHT22;35901;48.694;9.476;2023-03-16T13:30:27;12.50;88.50
50013;DHT22;35901;48.694;9.476;2023-03-16T13:32:58;12.70;85.80
50013;DHT22;35901;48.694;9.476;2023-03-16T13:35:27;12.50;86.40
50013;DHT22;35901;48.694;9.476;2023-03-16T13:37:53;13.20;88.10
50013;DHT22;35901;48.694;9.476;2023-03-16T13:40:24;13.20;86.10
50013;DHT22;35901;48.694;9.476;2023-03-16T13:42:52;13.40;88.50
50013;DHT22;35901;48.694;9.476;2023-03-16T13:45:33;13.20;88.00
50013;DHT22;35901;48.694;9.476;2023-03-16T13:48:01;13.00;87.20
50013;DHT22;35901;48.694;9.476;2023-03-16T13:50:31;12.70;88.10
50013;DHT22;35901;48.694;9.476;2023-03-16T13:53:00;12.30;90.30
50013;DHT22;35901;48.694;9.476;2023-03-16T13:55:34;12.70;91.10
50013;DHT22;35901;48.694;9.476;2023-03-16T13:58:02;12.70;88.70
50013;DHT22;35901;48.694;9.476;2023-03-16T14:00:35;12.70;86.60
50013;DHT22;35901;48.694;9.476;2023-03-16T14:03:16;12.50;89.20
50013;DHT22;35901;48.694;9.476;2023-03-16T14:05:43;12.30;87.40
50013;DHT22;35901;48.694;9.476;2023-03-16T14:08:19;12.00;92.20
50013;DHT22;35901;48.694;9.476;2023-03-16T14:10:45;11.80;90.10
50013;DHT22;35901;48.694;9.476;2023-03-16T14:15:53;11.20;90.80
50013;DHT22;35901;48.694;9.476;2023-03-16T14:18:23;10.90;92.70
50013;DHT22;35901;48.694;9.476;2023-03-16T14:20:55;10.90;93.10
50013;DHT22;35901;48.694;9.476;2023-03-16T14:23:44;10.90;91.80
50013;DHT22;35901;48.694;9.476;2023-03-16T14:26:13;11.10;92.00
50013;DHT22;35901;48.694;9.476;2023-03-16T14:28:40;11.70;91.60
50013;DHT22;35901;48.694;9.476;2023-03-16T14:31:11;12.00;92.30
50013;DHT22;35901;48.694;9.476;2023-03-16T14:33:41;12.40;90.60
50013;DHT22;35901;48.694;9.476;2023-03-16T14:36:17;12.80;91.00
50013;DHT22;35901;48.694;9.476;2023-03-16T14:38:47;13.10;89.70
50013;DHT22;35901;48.694;9.476;2023-03-16T14:41:28;13.10;90.40
50013;DHT22;35901;48.694;9.476;2023-03-16T14:43:56;13.00;89.30
50013;DHT22;35901;48.694;9.476;2023-03-16T14:46:37;12.70;87.20
50013;DHT22;35901;48.694;9.476;2023-03-16T14:49:21;12.50;88.20
50013;DHT22;35901;48.694;9.476;2023-03-16T14:51:51;12.30;89.40
50013;DHT22;35901;48.694;9.476;2023-03-16T14:54:19;12.30;89.20
50013;DHT22;35901;48.694;9.476;2023-03-16T14:56:54;12.50;90.60
50013;DHT22;35901;48.694;9.476;2023-03-16T14:59:20;12.50;90.30
50013;DHT22;35901;48.694;9.476;2023-03-16T15:01:46;12.60;89.70
50013;DHT22;35901;48.694;9.476;2023-03-16T15:04:16;12.50;86.00
50013;DHT22;35901;48.694;9.476;2023-03-16T15:06:44;12.40;90.40
50013;DHT22;35901;48.694;9.476;2023-03-16T15:11:52;12.30;88.10
50013;DHT22;35901;48.694;9.476;2023-03-16T15:14:19;12.30;89.70
50013;DHT22;35901;48.694;9.476;2023-03-16T15:17:05;12.40;86.70
50013;DHT22;35901;48.694;9.476;2023-03-16T15:19:31;12.30;85.80
50013;DHT22;35901;48.694;9.476;2023-03-16T15:21:59;12.20;83.50
50013;DHT22;35901;48.694;9.476;2023-03-16T15:24:25;12.00;88.10
50013;DHT22;35901;48.694;9.476;2023-03-16T15:26:53;12.10;86.90
50013;DHT22;35901;48.694;9.476;2023-03-16T15:29:19;12.00;87.20
50013;DHT22;35901;48.694;9.476;2023-03-16T15:31:45;12.00;86.50
50013;DHT22;35901;48.694;9.476;2023-03-16T15:34:11;11.90;88.60
50013;DHT22;35901;48.694;9.476;2023-03-16T15:36:37;11.80;89.00
50013;DHT22;35901;48.694;9.476;2023-03-16T15:39:03;11.70;89.70
50013;DHT22;35901;48.694;9.476;2023-03-16T15:41:29;11.70;86.60
50013;DHT22;35901;48.694;9.476;2023-03-16T15:43:55;11.60;88.30
50013;DHT22;35901;48.694;9.476;2023-03-16T15:46:26;11.60;86.70
50013;DHT22;35901;48.694;9.476;2023-03-16T15:48:52;11.50;89.10
50013;DHT22;35901;48.694;9.476;2023-03-16T15:51:26;11.40;88.40
50013;DHT22;35901;48.694;9.476;2023-03-16T15:53:57;11.30;89.10
50013;DHT22;35901;48.694;9.476;2023-03-16T15:56:29;11.10;90.00
50013;DHT22;35901;48.694;9.476;2023-03-16T15:59:01;11.00;90.50
50013;DHT22;35901;48.694;9.476;2023-03-16T16:01:30;11.00;89.80
50013;DHT22;35901;48.694;9.476;2023-03-16T16:03:59;11.00;90.50
50013;DHT22;35901;48.694;9.476;2023-03-16T16:06:25;11.00;89.30
50013;DHT22;35901;48.694;9.476;2023-03-16T16:08:53;10.90;90.40
50013;DHT22;35901;48.694;9.476;2023-03-16T16:11:28;10.90;90.00
50013;DHT22;35901;48.694;9.476;2023-03-16T16:13:55;10.70;91.20
50013;DHT22;35901;48.694;9.476;2023-03-16T16:16:22;10.60;91.80
50013;DHT22;35901;48.694;9.476;2023-03-16T16:18:48;10.60;90.40
50013;DHT22;35901;48.694;9.476;2023-03-16T16:21:19;10.60;90.90
50013;DHT22;35901;48.694;9.476;2023-03-16T16:23:46;10.40;91.40
50013;DHT22;35901;48.694;9.476;2023-03-16T16:28:47;10.30;91.00
50013;DHT22;35901;48.694;9.476;2023-03-16T16:31:13;10.20;92.00
50013;DHT22;35901;48.694;9.476;2023-03-16T16:33:39;10.00;91.80
50013;DHT22;35901;48.694;9.476;2023-03-16T16:36:11;9.90;92.60
50013;DHT22;35901;48.694;9.476;2023-03-16T16:38:38;9.90;91.60
50013;DHT22;35901;48.694;9.476;2023-03-16T16:41:07;9.90;92.70
50013;DHT22;35901;48.694;9.476;2023-03-16T16:43:39;9.70;92.80
50013;DHT22;35901;48.694;9.476;2023-03-16T16:46:15;9.60;93.00
50013;DHT22;35901;48.694;9.476;2023-03-16T16:48:46;9.50;92.50
50013;DHT22;35901;48.694;9.476;2023-03-16T16:51:18;9.50;93.80
50013;DHT22;35901;48.694;9.476;2023-03-16T16:53:45;9.30;93.70
50013;DHT22;35901;48.694;9.476;2023-03-16T16:56:13;9.20;93.00
50013;DHT22;35901;48.694;9.476;2023-03-16T16:58:40;9.10;93.90
50013;DHT22;35901;48.694;9.476;2023-03-16T17:01:24;9.10;93.20
50013;DHT22;35901;48.694;9.476;2023-03-16T17:03:50;9.00;93.60